Time;durP1;ratioP1;P1;durP2;ratioP2;P2;SDS_P1;SDS_P2;PMS_P1;PMS_P2;Temp;Humidity;BMP_temperature;BMP_pressure;BME280_temperature;BME280_humidity;BME280_pressure;Samples;Min_cycle;Max_cycle;Signal;HPM_P1;HPM_P2
2019/04/19 06:07:15;;;;;;;7.100001;6.4;;;;;;;8.16;65.9375;96105.07;;;;
2019/04/19 06:08:17;;;;;;;7.100001;6.4;;;;;;;8.16;65.9375;96105.07;;;;
2019/04/19 06:09:18;;;;;;;7.100001;6.4;;;;;;;8.16;65.9375;96105.07;;;;
2019/04/19 06:10:20;;;;;;;7.100001;6.4;;;;;;;8.16;65.9375;96105.07;;;;
2019/04/19 06:11:21;;;;;;;7.100001;6.4;;;;;;;8.16;65.9375;96105.07;;;;
2019/04/19 06:12:22;;;;;;;7.100001;6.4;;;;;;;8.16;65.9375;96105.07;;;;
2019/04/19 06:13:23;;;;;;;7.100001;6.4;;;;;;;8.16;65.9375;96105.07;;;;
2019/04/19 06:14:24;;;;;;;7.100001;6.4;;;;;;;8.16;65.9375;96105.07;;;;
2019/04/19 06:15:25;;;;;;;7.100001;6.4;;;;;;;8.16;65.9375;96105.07;;;;
2019/04/19 06:16:26;;;;;;;7.100001;6.4;;;;;;;8.16;65.9375;96105.07;;;;
2019/04/19 06:17:34;;;;;;;7.2;6.400001;;;;;;;8.8;64.90234;96114.9;;;;
2019/04/19 06:18:42;;;;;;;7.2;6.400001;;;;;;;8.8;64.90234;96114.9;;;;
2019/04/19 06:19:46;;;;;;;7.2;6.400001;;;;;;;8.8;64.90234;96114.9;;;;
2019/04/19 06:20:48;;;;;;;7.2;6.400001;;;;;;;8.8;64.90234;96114.9;;;;
2019/04/19 06:21:49;;;;;;;7.2;6.400001;;;;;;;8.8;64.90234;96114.9;;;;
2019/04/19 06:22:50;;;;;;;7.2;6.400001;;;;;;;8.8;64.90234;96114.9;;;;
2019/04/19 06:23:51;;;;;;;7.2;6.400001;;;;;;;8.8;64.90234;96114.9;;;;
2019/04/19 06:24:52;;;;;;;7.2;6.400001;;;;;;;8.8;64.90234;96114.9;;;;
2019/04/19 06:25:53;;;;;;;7.2;6.400001;;;;;;;8.8;64.90234;96114.9;;;;
2019/04/19 06:26:54;;;;;;;7.2;6.400001;;;;;;;8.8;64.90234;96114.9;;;;
2019/04/19 06:27:55;;;;;;;7.2;6.400001;;;;;;;8.8;64.90234;96114.9;;;;
2019/04/19 06:28:56;;;;;;;8;6.6;;;;;;;9.6;63.66211;96124.58;;;;
2019/04/19 06:29:57;;;;;;;8;6.6;;;;;;;9.6;63.66211;96124.58;;;;
2019/04/19 06:30:58;;;;;;;8;6.6;;;;;;;9.6;63.66211;96124.58;;;;
2019/04/19 06:31:59;;;;;;;8;6.6;;;;;;;9.6;63.66211;96124.58;;;;
2019/04/19 06:33:01;;;;;;;8;6.6;;;;;;;9.6;63.66211;96124.58;;;;
2019/04/19 06:34:02;;;;;;;7;5.849999;;;;;;;10.48;62.42773;96119.89;;;;
2019/04/19 06:35:03;;;;;;;7;5.849999;;;;;;;10.48;62.42773;96119.89;;;;
2019/04/19 06:36:04;;;;;;;7;5.849999;;;;;;;10.48;62.42773;96119.89;;;;
2019/04/19 06:37:05;;;;;;;7;5.849999;;;;;;;10.48;62.42773;96119.89;;;;
2019/04/19 06:38:07;;;;;;;7;5.849999;;;;;;;10.48;62.42773;96119.89;;;;
2019/04/19 06:39:08;;;;;;;7;5.849999;;;;;;;10.48;62.42773;96119.89;;;;
2019/04/19 06:40:09;;;;;;;7;5.849999;;;;;;;10.48;62.42773;96119.89;;;;
2019/04/19 06:41:10;;;;;;;7;5.849999;;;;;;;10.48;62.42773;96119.89;;;;
2019/04/19 06:42:11;;;;;;;7;5.849999;;;;;;;10.48;62.42773;96119.89;;;;
2019/04/19 06:43:12;;;;;;;7;5.849999;;;;;;;10.48;62.42773;96119.89;;;;
2019/04/19 06:44:13;;;;;;;6.95;6.25;;;;;;;12.11;60.04004;96125.97;;;;
2019/04/19 06:45:14;;;;;;;6.95;6.25;;;;;;;12.11;60.04004;96125.97;;;;
2019/04/19 06:46:15;;;;;;;6.95;6.25;;;;;;;12.11;60.04004;96125.97;;;;
2019/04/19 06:47:16;;;;;;;6.699999;5.85;;;;;;;12.51;58.95215;96125.78;;;;
2019/04/19 06:48:17;;;;;;;6.699999;5.85;;;;;;;12.51;58.95215;96125.78;;;;
2019/04/19 06:49:18;;;;;;;6.45;5.849999;;;;;;;12.93;57.9502;96131.05;;;;
2019/04/19 06:50:19;;;;;;;6.45;5.849999;;;;;;;12.93;57.9502;96131.05;;;;
2019/04/19 06:51:20;;;;;;;6.45;5.849999;;;;;;;12.93;57.9502;96131.05;;;;
2019/04/19 06:52:21;;;;;;;6.45;5.849999;;;;;;;12.93;57.9502;96131.05;;;;
2019/04/19 06:53:22;;;;;;;6.45;5.849999;;;;;;;12.93;57.9502;96131.05;;;;
2019/04/19 06:54:24;;;;;;;6.45;5.849999;;;;;;;12.93;57.9502;96131.05;;;;
2019/04/19 06:55:25;;;;;;;6.45;5.849999;;;;;;;12.93;57.9502;96131.05;;;;
2019/04/19 06:56:26;;;;;;;6.45;5.849999;;;;;;;12.93;57.9502;96131.05;;;;
2019/04/19 06:57:27;;;;;;;6.45;5.849999;;;;;;;12.93;57.9502;96131.05;;;;
2019/04/19 06:58:28;;;;;;;6.45;5.849999;;;;;;;12.93;57.9502;96131.05;;;;
2019/04/19 06:59:29;;;;;;;6.45;5.849999;;;;;;;12.93;57.9502;96131.05;;;;
2019/04/19 07:00:30;;;;;;;6.749999;6.15;;;;;;;14.22;56.38477;96145.06;;;;
2019/04/19 07:01:31;;;;;;;6.749999;6.15;;;;;;;14.22;56.38477;96145.06;;;;
2019/04/19 07:02:32;;;;;;;6.65;6.05;;;;;;;14.57;55.26758;96147.35;;;;
2019/04/19 07:03:33;;;;;;;6.65;6.05;;;;;;;14.57;55.26758;96147.35;;;;
2019/04/19 07:04:34;;;;;;;6.65;6.05;;;;;;;14.57;55.26758;96147.35;;;;
2019/04/19 07:05:35;;;;;;;6.65;6.05;;;;;;;14.57;55.26758;96147.35;;;;
2019/04/19 07:06:36;;;;;;;6.65;6.05;;;;;;;14.57;55.26758;96147.35;;;;
2019/04/19 07:07:37;;;;;;;6.65;6.05;;;;;;;14.57;55.26758;96147.35;;;;
2019/04/19 07:08:38;;;;;;;6.65;6.05;;;;;;;14.57;55.26758;96147.35;;;;
2019/04/19 07:09:40;;;;;;;6.65;6.05;;;;;;;14.57;55.26758;96147.35;;;;
2019/04/19 07:10:41;;;;;;;6.65;6.05;;;;;;;14.57;55.26758;96147.35;;;;
2019/04/19 07:11:42;;;;;;;6.65;6.05;;;;;;;14.57;55.26758;96147.35;;;;
2019/04/19 07:12:43;;;;;;;6.65;6.05;;;;;;;14.57;55.26758;96147.35;;;;
2019/04/19 07:13:44;;;;;;;6.65;6.05;;;;;;;14.57;55.26758;96147.35;;;;
2019/04/19 07:14:45;;;;;;;6.65;6.05;;;;;;;14.57;55.26758;96147.35;;;;
2019/04/19 07:15:46;;;;;;;6.699998;6;;;;;;;15.76;52.89063;96143.95;;;;
2019/04/19 07:16:47;;;;;;;6.699998;6;;;;;;;15.76;52.89063;96143.95;;;;
2019/04/19 07:17:48;;;;;;;6.699998;6;;;;;;;15.76;52.89063;96143.95;;;;
2019/04/19 07:18:49;;;;;;;6.699998;6;;;;;;;15.76;52.89063;96143.95;;;;
2019/04/19 07:19:50;;;;;;;6.699998;6;;;;;;;15.76;52.89063;96143.95;;;;
2019/04/19 07:20:51;;;;;;;6.699998;6;;;;;;;15.76;52.89063;96143.95;;;;
2019/04/19 07:21:52;;;;;;;6.699998;6;;;;;;;15.76;52.89063;96143.95;;;;
2019/04/19 07:22:54;;;;;;;6.699998;6;;;;;;;15.76;52.89063;96143.95;;;;
2019/04/19 07:23:55;;;;;;;6.699998;6;;;;;;;15.76;52.89063;96143.95;;;;
2019/04/19 07:24:56;;;;;;;6.699998;6;;;;;;;15.76;52.89063;96143.95;;;;
2019/04/19 07:25:57;;;;;;;6.699998;6;;;;;;;15.76;52.89063;96143.95;;;;
2019/04/19 07:26:58;;;;;;;6.699998;6;;;;;;;15.76;52.89063;96143.95;;;;
2019/04/19 07:27:59;;;;;;;6.699998;6;;;;;;;15.76;52.89063;96143.95;;;;
2019/04/19 07:29:01;;;;;;;6.699998;6;;;;;;;15.76;52.89063;96143.95;;;;
2019/04/19 07:30:02;;;;;;;6.699998;6;;;;;;;15.76;52.89063;96143.95;;;;
2019/04/19 07:31:04;;;;;;;6.699998;6;;;;;;;15.76;52.89063;96143.95;;;;
2019/04/19 07:32:05;;;;;;;7.6;6.199999;;;;;;;16.66;50.19043;96159.93;;;;
2019/04/19 07:33:06;;;;;;;7.6;6.199999;;;;;;;16.66;50.19043;96159.93;;;;
2019/04/19 07:34:07;;;;;;;7.6;6.199999;;;;;;;16.66;50.19043;96159.93;;;;
2019/04/19 07:35:08;;;;;;;7.6;6.199999;;;;;;;16.66;50.19043;96159.93;;;;
2019/04/19 07:36:10;;;;;;;7.6;6.199999;;;;;;;16.66;50.19043;96159.93;;;;
2019/04/19 07:37:11;;;;;;;6.9;6.299999;;;;;;;17.02;48.70996;96167.22;;;;
2019/04/19 07:38:12;;;;;;;6.9;6.299999;;;;;;;17.02;48.70996;96167.22;;;;
2019/04/19 07:39:13;;;;;;;6.9;6.299999;;;;;;;17.02;48.70996;96167.22;;;;
2019/04/19 07:40:14;;;;;;;7.699999;6;;;;;;;17.18;48.5957;96160.86;;;;
2019/04/19 07:41:15;;;;;;;7.699999;6;;;;;;;17.18;48.5957;96160.86;;;;
2019/04/19 07:42:18;;;;;;;6.25;5.7;;;;;;;17.34;48.23047;96163.48;;;;
2019/04/19 07:44:02;;;;;;;6.25;5.7;;;;;;;17.34;48.23047;96163.48;;;;
2019/04/19 07:45:12;;;;;;;6.75;6.150001;;;;;;;17.49;47.83105;96171.04;;;;
2019/04/19 07:46:14;;;;;;;6.75;6.150001;;;;;;;17.49;47.83105;96171.04;;;;
2019/04/19 07:47:22;;;;;;;6.75;6.150001;;;;;;;17.49;47.83105;96171.04;;;;
2019/04/19 07:48:33;;;;;;;6.35;5.75;;;;;;;17.63;46.89258;96178.58;;;;
2019/04/19 07:49:35;;;;;;;6.35;5.75;;;;;;;17.63;46.89258;96178.58;;;;
2019/04/19 07:50:36;;;;;;;6.699999;5.55;;;;;;;17.83;46.51855;96182.03;;;;
2019/04/19 07:51:37;;;;;;;6.699999;5.55;;;;;;;17.83;46.51855;96182.03;;;;
2019/04/19 07:52:38;;;;;;;6.699999;5.55;;;;;;;17.83;46.51855;96182.03;;;;
2019/04/19 07:53:39;;;;;;;6.55;5.95;;;;;;;18.07;46.43359;96181.58;;;;
2019/04/19 07:54:40;;;;;;;6.55;5.95;;;;;;;18.07;46.43359;96181.58;;;;
2019/04/19 07:55:41;;;;;;;6.55;5.95;;;;;;;18.42;45.4375;96178.33;;;;
2019/04/19 07:56:43;;;;;;;6.55;5.95;;;;;;;18.42;45.4375;96178.33;;;;
2019/04/19 07:57:44;;;;;;;6.55;5.95;;;;;;;18.42;45.4375;96178.33;;;;
2019/04/19 07:58:45;;;;;;;6.25;5.75;;;;;;;19.08;43.9541;96184.88;;;;
2019/04/19 07:59:46;;;;;;;6.25;5.75;;;;;;;19.08;43.9541;96184.88;;;;
2019/04/19 08:00:47;;;;;;;6.55;5.8;;;;;;;19.82;42.85742;96187.19;;;;
2019/04/19 08:01:48;;;;;;;6.55;5.8;;;;;;;19.82;42.85742;96187.19;;;;
2019/04/19 08:02:49;;;;;;;6.55;5.8;;;;;;;19.82;42.85742;96187.19;;;;
2019/04/19 08:03:50;;;;;;;7.15;6.199999;;;;;;;20.58;41.5498;96188.45;;;;
2019/04/19 08:04:51;;;;;;;7.15;6.199999;;;;;;;20.58;41.5498;96188.45;;;;
2019/04/19 08:05:52;;;;;;;7.15;6.199999;;;;;;;20.58;41.5498;96188.45;;;;
2019/04/19 08:06:53;;;;;;;6.7;5.5;;;;;;;21.4;40.61719;96184.41;;;;
2019/04/19 08:07:54;;;;;;;6.7;5.5;;;;;;;21.4;40.61719;96184.41;;;;
2019/04/19 08:08:55;;;;;;;6.15;5.65;;;;;;;22.24;38.95215;96188.73;;;;
2019/04/19 08:09:57;;;;;;;6.15;5.65;;;;;;;22.24;38.95215;96188.73;;;;
2019/04/19 08:10:58;;;;;;;6.15;5.65;;;;;;;22.24;38.95215;96188.73;;;;
2019/04/19 08:11:59;;;;;;;6.2;5.649999;;;;;;;23.03;37.71875;96194.76;;;;
2019/04/19 08:13:00;;;;;;;6.2;5.649999;;;;;;;23.03;37.71875;96194.76;;;;
2019/04/19 08:14:01;;;;;;;6;5.5;;;;;;;23.9;36.63281;96193.3;;;;
2019/04/19 08:15:02;;;;;;;6;5.5;;;;;;;23.9;36.63281;96193.3;;;;
2019/04/19 08:16:03;;;;;;;6;5.5;;;;;;;23.9;36.63281;96193.3;;;;
2019/04/19 08:17:05;;;;;;;6.249999;5.649999;;;;;;;24.74;35.31445;96193.25;;;;
2019/04/19 08:18:06;;;;;;;6.249999;5.649999;;;;;;;24.74;35.31445;96193.25;;;;
2019/04/19 08:19:07;;;;;;;6.249999;5.649999;;;;;;;24.74;35.31445;96193.25;;;;
2019/04/19 08:20:08;;;;;;;7.099999;5.349999;;;;;;;25.51;34.58008;96197.45;;;;
2019/04/19 08:21:09;;;;;;;7.099999;5.349999;;;;;;;25.51;34.58008;96197.45;;;;
2019/04/19 08:22:10;;;;;;;6.750001;5.699999;;;;;;;26.34;33.55566;96190.92;;;;
2019/04/19 08:23:11;;;;;;;6.750001;5.699999;;;;;;;26.34;33.55566;96190.92;;;;
2019/04/19 08:24:12;;;;;;;6.750001;5.699999;;;;;;;26.34;33.55566;96190.92;;;;
2019/04/19 08:25:13;;;;;;;5.9;5.3;;;;;;;27.13;32.49023;96196.13;;;;
2019/04/19 08:26:14;;;;;;;5.9;5.3;;;;;;;27.13;32.49023;96196.13;;;;
2019/04/19 08:27:15;;;;;;;5.8;5.2;;;;;;;27.85;31.03125;96194.8;;;;
2019/04/19 08:28:16;;;;;;;5.8;5.2;;;;;;;27.85;31.03125;96194.8;;;;
2019/04/19 08:29:17;;;;;;;5.8;5.2;;;;;;;27.85;31.03125;96194.8;;;;
2019/04/19 08:30:18;;;;;;;5.8;5.2;;;;;;;27.85;31.03125;96194.8;;;;
2019/04/19 08:31:20;;;;;;;5.8;5.2;;;;;;;27.85;31.03125;96194.8;;;;
2019/04/19 08:32:21;;;;;;;5.8;5.2;;;;;;;27.85;31.03125;96194.8;;;;
2019/04/19 08:33:22;;;;;;;5.65;5.15;;;;;;;29.07;29.43066;96199.54;;;;
2019/04/19 08:34:23;;;;;;;5.65;5.15;;;;;;;29.07;29.43066;96199.54;;;;
2019/04/19 08:35:24;;;;;;;5.65;5.15;;;;;;;29.07;29.43066;96199.54;;;;
2019/04/19 08:36:25;;;;;;;5.65;5.15;;;;;;;29.07;29.43066;96199.54;;;;
2019/04/19 08:37:26;;;;;;;5.65;5.15;;;;;;;29.07;29.43066;96199.54;;;;
2019/04/19 08:38:27;;;;;;;5.95;5.45;;;;;;;30.21;27.14746;96205.77;;;;
2019/04/19 08:39:28;;;;;;;5.95;5.45;;;;;;;30.21;27.14746;96205.77;;;;
2019/04/19 08:40:29;;;;;;;5.8;5.2;;;;;;;30.65;26.32129;96203.34;;;;
2019/04/19 08:41:30;;;;;;;5.8;5.2;;;;;;;30.65;26.32129;96203.34;;;;
2019/04/19 08:42:31;;;;;;;5.8;5.2;;;;;;;30.65;26.32129;96203.34;;;;
2019/04/19 08:43:32;;;;;;;5.8;5.2;;;;;;;30.65;26.32129;96203.34;;;;
2019/04/19 08:44:34;;;;;;;5.8;5.2;;;;;;;30.65;26.32129;96203.34;;;;
2019/04/19 08:45:49;;;;;;;5.6;5.1;;;;;;;31.46;25.04883;96214.15;;;;
2019/04/19 08:47:04;;;;;;;5.6;5.1;;;;;;;31.46;25.04883;96214.15;;;;
2019/04/19 08:48:11;;;;;;;5.6;5.1;;;;;;;31.46;25.04883;96214.15;;;;
2019/04/19 08:49:25;;;;;;;5.95;5.25;;;;;;;31.95;24.32324;96207.05;;;;
2019/04/19 08:50:30;;;;;;;5.95;5.25;;;;;;;31.95;24.32324;96207.05;;;;
2019/04/19 08:51:46;;;;;;;5.500001;4.8;;;;;;;32.49;23.48438;96219.38;;;;
2019/04/19 08:52:47;;;;;;;5.500001;4.8;;;;;;;32.49;23.48438;96219.38;;;;
2019/04/19 08:53:49;;;;;;;5.500001;4.8;;;;;;;32.49;23.48438;96219.38;;;;
2019/04/19 08:54:50;;;;;;;5.5;5.099999;;;;;;;33;22.89453;96211.95;;;;
2019/04/19 08:55:51;;;;;;;5.5;5.099999;;;;;;;33;22.89453;96211.95;;;;
2019/04/19 08:56:52;;;;;;;5.299999;4.900001;;;;;;;33.41;22.37695;96216.69;;;;
2019/04/19 08:57:53;;;;;;;5.299999;4.900001;;;;;;;33.41;22.37695;96216.69;;;;
2019/04/19 08:58:54;;;;;;;5.299999;4.900001;;;;;;;33.41;22.37695;96216.69;;;;
2019/04/19 08:59:55;;;;;;;5.699999;5.199999;;;;;;;33.84;21.66602;96215.26;;;;
2019/04/19 09:00:56;;;;;;;5.699999;5.199999;;;;;;;33.84;21.66602;96215.26;;;;
2019/04/19 09:01:57;;;;;;;5.55;4.95;;;;;;;34.13;21.28906;96220.03;;;;
2019/04/19 09:02:58;;;;;;;5.55;4.95;;;;;;;34.13;21.28906;96220.03;;;;
2019/04/19 09:03:59;;;;;;;5.55;4.95;;;;;;;34.13;21.28906;96220.03;;;;
2019/04/19 09:05:00;;;;;;;5.749999;5.25;;;;;;;34.45;20.9834;96214.23;;;;
2019/04/19 09:06:02;;;;;;;5.749999;5.25;;;;;;;34.45;20.9834;96214.23;;;;
2019/04/19 09:07:03;;;;;;;5.749999;5.25;;;;;;;34.45;20.9834;96214.23;;;;
2019/04/19 09:08:04;;;;;;;5.55;5.05;;;;;;;34.77;20.27441;96217.15;;;;
2019/04/19 09:09:05;;;;;;;5.55;5.05;;;;;;;34.77;20.27441;96217.15;;;;
2019/04/19 09:10:06;;;;;;;5.7;5.2;;;;;;;35.02;19.73438;96214.48;;;;
2019/04/19 09:11:07;;;;;;;5.7;5.2;;;;;;;35.02;19.73438;96214.48;;;;
2019/04/19 09:12:09;;;;;;;5.7;5.2;;;;;;;35.02;19.73438;96214.48;;;;
2019/04/19 09:13:10;;;;;;;5.7;5.2;;;;;;;35.19;19.43164;96218.05;;;;
2019/04/19 09:14:11;;;;;;;5.7;5.2;;;;;;;35.19;19.43164;96218.05;;;;
2019/04/19 09:15:12;;;;;;;5.5;5.100001;;;;;;;35.24;19.19238;96214.94;;;;
2019/04/19 09:16:13;;;;;;;5.5;5.100001;;;;;;;35.24;19.19238;96214.94;;;;
2019/04/19 09:17:14;;;;;;;5.5;5.100001;;;;;;;35.24;19.19238;96214.94;;;;
2019/04/19 09:18:15;;;;;;;5.7;4.95;;;;;;;35.41;18.72754;96217.88;;;;
2019/04/19 09:19:16;;;;;;;5.7;4.95;;;;;;;35.41;18.72754;96217.88;;;;
2019/04/19 09:20:17;;;;;;;5.7;4.95;;;;;;;35.41;18.72754;96217.88;;;;
2019/04/19 09:21:20;;;;;;;5.400001;5;;;;;;;35.54;18.80273;96219.78;;;;
2019/04/19 09:22:46;;;;;;;5.400001;5;;;;;;;35.54;18.80273;96219.78;;;;
2019/04/19 09:23:47;;;;;;;5.45;4.95;;;;;;;35.74;18.70703;96221.36;;;;
2019/04/19 09:24:48;;;;;;;5.45;4.95;;;;;;;35.74;18.70703;96221.36;;;;
2019/04/19 09:25:58;;;;;;;5.5;5;;;;;;;35.98;18.44043;96217.36;;;;
2019/04/19 09:26:59;;;;;;;5.5;5;;;;;;;35.98;18.44043;96217.36;;;;
2019/04/19 09:28:00;;;;;;;5.5;5;;;;;;;35.98;18.44043;96217.36;;;;
2019/04/19 09:29:01;;;;;;;5.45;4.95;;;;;;;36.17;18.00977;96222.92;;;;
2019/04/19 09:30:03;;;;;;;5.45;4.95;;;;;;;36.17;18.00977;96222.92;;;;
2019/04/19 09:31:04;;;;;;;5.7;5.2;;;;;;;36.33;17.82031;96221.77;;;;
2019/04/19 09:32:05;;;;;;;5.7;5.2;;;;;;;36.33;17.82031;96221.77;;;;
2019/04/19 09:33:06;;;;;;;5.7;5.2;;;;;;;36.33;17.82031;96221.77;;;;
2019/04/19 09:34:07;;;;;;;5.349999;4.849999;;;;;;;36.48;17.13379;96221.41;;;;
2019/04/19 09:35:09;;;;;;;5.349999;4.849999;;;;;;;36.48;17.13379;96221.41;;;;
2019/04/19 09:36:10;;;;;;;5.349999;4.849999;;;;;;;36.48;17.13379;96221.41;;;;
2019/04/19 09:37:11;;;;;;;5.4;4.849999;;;;;;;36.55;17.02148;96217.13;;;;
2019/04/19 09:38:12;;;;;;;5.4;4.849999;;;;;;;36.55;17.02148;96217.13;;;;
2019/04/19 09:39:13;;;;;;;5;4.6;;;;;;;36.67;16.69141;96222.52;;;;
2019/04/19 09:40:14;;;;;;;5;4.6;;;;;;;36.67;16.69141;96222.52;;;;
2019/04/19 09:41:15;;;;;;;5;4.6;;;;;;;36.67;16.69141;96222.52;;;;
2019/04/19 09:42:16;;;;;;;5.45;4.95;;;;;;;36.69;16.38086;96214.5;;;;
2019/04/19 09:43:17;;;;;;;5.45;4.95;;;;;;;36.69;16.38086;96214.5;;;;
2019/04/19 09:44:18;;;;;;;5.45;4.95;;;;;;;36.69;16.38086;96214.5;;;;
2019/04/19 09:45:19;;;;;;;5.45;4.95;;;;;;;36.69;16.38086;96214.5;;;;
2019/04/19 09:46:20;;;;;;;5.45;4.95;;;;;;;36.69;16.38086;96214.5;;;;
2019/04/19 09:47:21;;;;;;;4.75;4.35;;;;;;;36.96;16.60938;96217.69;;;;
2019/04/19 09:48:22;;;;;;;4.75;4.35;;;;;;;36.96;16.60938;96217.69;;;;
2019/04/19 09:49:23;;;;;;;5.3;4.8;;;;;;;37.16;16.6748;96215.35;;;;
2019/04/19 09:50:24;;;;;;;5.3;4.8;;;;;;;37.16;16.6748;96215.35;;;;
2019/04/19 09:51:25;;;;;;;5.3;4.8;;;;;;;37.16;16.6748;96215.35;;;;
2019/04/19 09:52:27;;;;;;;5.3;4.8;;;;;;;37.16;16.6748;96215.35;;;;
2019/04/19 09:53:28;;;;;;;5.3;4.8;;;;;;;37.16;16.6748;96215.35;;;;
2019/04/19 09:54:29;;;;;;;5.3;4.8;;;;;;;37.16;16.6748;96215.35;;;;
2019/04/19 09:55:30;;;;;;;5.45;5;;;;;;;37.36;16.0459;96210.78;;;;
2019/04/19 09:56:31;;;;;;;5.45;5;;;;;;;37.36;16.0459;96210.78;;;;
2019/04/19 09:57:32;;;;;;;5.45;4.95;;;;;;;37.47;15.80762;96207.08;;;;
2019/04/19 09:58:33;;;;;;;5.45;4.95;;;;;;;37.47;15.80762;96207.08;;;;
2019/04/19 09:59:34;;;;;;;5.45;4.95;;;;;;;37.47;15.80762;96207.08;;;;
2019/04/19 10:00:35;;;;;;;5.299999;4.849999;;;;;;;37.59;15.52148;96209.62;;;;
2019/04/19 10:01:36;;;;;;;5.299999;4.849999;;;;;;;37.59;15.52148;96209.62;;;;
2019/04/19 10:02:37;;;;;;;5.349999;4.849999;;;;;;;37.73;15.28418;96211.61;;;;
2019/04/19 10:03:38;;;;;;;5.349999;4.849999;;;;;;;37.73;15.28418;96211.61;;;;
2019/04/19 10:04:39;;;;;;;5.349999;4.849999;;;;;;;37.73;15.28418;96211.61;;;;
2019/04/19 10:05:41;;;;;;;5.400001;4.9;;;;;;;37.87;15.04492;96214.76;;;;
2019/04/19 10:06:42;;;;;;;5.400001;4.9;;;;;;;37.87;15.04492;96214.76;;;;
2019/04/19 10:07:43;;;;;;;5.400001;4.9;;;;;;;37.87;15.04492;96214.76;;;;
2019/04/19 10:08:44;;;;;;;5.099999;4.7;;;;;;;37.93;14.89648;96209.38;;;;
2019/04/19 10:09:45;;;;;;;5.099999;4.7;;;;;;;37.93;14.89648;96209.38;;;;
2019/04/19 10:10:46;;;;;;;5.05;4.649999;;;;;;;38.04;14.85449;96209.28;;;;
2019/04/19 10:11:47;;;;;;;5.05;4.649999;;;;;;;38.04;14.85449;96209.28;;;;
2019/04/19 10:12:48;;;;;;;5.05;4.649999;;;;;;;38.04;14.85449;96209.28;;;;
2019/04/19 10:13:49;;;;;;;5.4;4.900001;;;;;;;38.14;14.94922;96208.13;;;;
2019/04/19 10:14:50;;;;;;;5.4;4.900001;;;;;;;38.14;14.94922;96208.13;;;;
2019/04/19 10:15:55;;;;;;;5.4;4.900001;;;;;;;38.14;14.94922;96208.13;;;;
2019/04/19 10:17:00;;;;;;;4.8;4.400001;;;;;;;38.23;14.54688;96205.44;;;;
2019/04/19 10:18:01;;;;;;;4.8;4.400001;;;;;;;38.23;14.54688;96205.44;;;;
2019/04/19 10:19:02;;;;;;;5;4.550001;;;;;;;38.48;14.625;96208.84;;;;
2019/04/19 10:20:03;;;;;;;5;4.550001;;;;;;;38.48;14.625;96208.84;;;;
2019/04/19 10:21:15;;;;;;;5;4.550001;;;;;;;38.48;14.625;96208.84;;;;
2019/04/19 10:22:17;;;;;;;5;4.6;;;;;;;38.5;14.38184;96203.62;;;;
2019/04/19 10:23:18;;;;;;;5;4.6;;;;;;;38.5;14.38184;96203.62;;;;
2019/04/19 10:24:19;;;;;;;5.05;4.649999;;;;;;;38.55;14.02441;96211.72;;;;
2019/04/19 10:25:24;;;;;;;5.05;4.649999;;;;;;;38.55;14.02441;96211.72;;;;
2019/04/19 10:26:29;;;;;;;5.05;4.649999;;;;;;;38.55;14.02441;96211.72;;;;
2019/04/19 10:27:31;;;;;;;5.299999;4.9;;;;;;;38.68;14.15527;96205.58;;;;
2019/04/19 10:28:32;;;;;;;5.299999;4.9;;;;;;;38.68;14.15527;96205.58;;;;
2019/04/19 10:29:33;;;;;;;4.9;4.45;;;;;;;38.82;14.08984;96203.64;;;;
2019/04/19 10:30:47;;;;;;;4.9;4.45;;;;;;;38.82;14.08984;96203.64;;;;
2019/04/19 10:31:53;;;;;;;4.9;4.45;;;;;;;38.82;14.08984;96203.64;;;;
2019/04/19 10:32:54;;;;;;;5.45;4.95;;;;;;;39.04;14.34082;96203.55;;;;
2019/04/19 10:33:55;;;;;;;5.45;4.95;;;;;;;39.04;14.34082;96203.55;;;;
2019/04/19 10:34:56;;;;;;;4.699999;4.4;;;;;;;39.08;13.92383;96205.2;;;;
2019/04/19 10:35:58;;;;;;;4.699999;4.4;;;;;;;39.08;13.92383;96205.2;;;;
2019/04/19 10:36:59;;;;;;;4.699999;4.4;;;;;;;39.08;13.92383;96205.2;;;;
2019/04/19 10:38:00;;;;;;;4.550001;4.199999;;;;;;;39.06;13.76074;96201.15;;;;
2019/04/19 10:39:01;;;;;;;4.550001;4.199999;;;;;;;39.06;13.76074;96201.15;;;;
2019/04/19 10:40:06;;;;;;;4.85;4.45;;;;;;;39.02;13.86426;96205.35;;;;
2019/04/19 10:41:07;;;;;;;4.85;4.45;;;;;;;39.02;13.86426;96205.35;;;;
2019/04/19 10:42:08;;;;;;;4.85;4.45;;;;;;;39.02;13.86426;96205.35;;;;
2019/04/19 10:43:09;;;;;;;4.85;4.45;;;;;;;39.02;13.86426;96205.35;;;;
2019/04/19 10:44:10;;;;;;;4.85;4.45;;;;;;;39.02;13.86426;96205.35;;;;
2019/04/19 10:45:11;;;;;;;4.85;4.45;;;;;;;39.02;13.86426;96205.35;;;;
2019/04/19 10:46:13;;;;;;;4.300001;4;;;;;;;38.92;13.4668;96196.81;;;;
2019/04/19 10:47:14;;;;;;;4.300001;4;;;;;;;38.92;13.4668;96196.81;;;;
2019/04/19 10:48:15;;;;;;;4.75;4.249999;;;;;;;38.88;13.31445;96194.57;;;;
2019/04/19 10:49:16;;;;;;;4.75;4.249999;;;;;;;38.88;13.31445;96194.57;;;;
2019/04/19 10:50:20;;;;;;;4.75;4.249999;;;;;;;38.88;13.31445;96194.57;;;;
2019/04/19 10:51:35;;;;;;;4.75;4.349999;;;;;;;38.83;13.3252;96202.01;;;;
2019/04/19 10:52:36;;;;;;;4.75;4.349999;;;;;;;38.83;13.3252;96202.01;;;;
2019/04/19 10:53:37;;;;;;;4.75;4.349999;;;;;;;38.83;13.3252;96202.01;;;;
2019/04/19 10:54:38;;;;;;;4.75;4.349999;;;;;;;38.83;13.3252;96202.01;;;;
2019/04/19 10:55:43;;;;;;;4.75;4.349999;;;;;;;38.83;13.3252;96202.01;;;;
2019/04/19 10:56:54;;;;;;;4.65;4.25;;;;;;;38.62;13.50391;96196.26;;;;
2019/04/19 10:57:55;;;;;;;4.65;4.25;;;;;;;38.62;13.50391;96196.26;;;;
2019/04/19 10:58:56;;;;;;;4.75;4.349999;;;;;;;38.56;13.25879;96191.96;;;;
2019/04/19 10:59:57;;;;;;;4.75;4.349999;;;;;;;38.56;13.25879;96191.96;;;;
2019/04/19 11:00:59;;;;;;;4.75;4.349999;;;;;;;38.56;13.25879;96191.96;;;;
2019/04/19 11:02:00;;;;;;;4.5;4.099999;;;;;;;38.58;13.49121;96184.5;;;;
2019/04/19 11:03:02;;;;;;;4.5;4.099999;;;;;;;38.58;13.49121;96184.5;;;;
2019/04/19 11:04:03;;;;;;;4.799999;4.400001;;;;;;;38.55;13.57227;96186.08;;;;
2019/04/19 11:05:04;;;;;;;4.799999;4.400001;;;;;;;38.55;13.57227;96186.08;;;;
2019/04/19 11:06:07;;;;;;;4.799999;4.400001;;;;;;;38.55;13.57227;96186.08;;;;
2019/04/19 11:07:08;;;;;;;5.25;4.75;;;;;;;38.48;13.43066;96185.66;;;;
2019/04/19 11:08:09;;;;;;;5.25;4.75;;;;;;;38.48;13.43066;96185.66;;;;
2019/04/19 11:09:10;;;;;;;5;4.4;;;;;;;38.4;13.08105;96189.62;;;;
2019/04/19 11:10:11;;;;;;;5;4.4;;;;;;;38.4;13.08105;96189.62;;;;
2019/04/19 11:11:12;;;;;;;5;4.4;;;;;;;38.4;13.08105;96189.62;;;;
2019/04/19 11:12:14;;;;;;;4.65;4.25;;;;;;;38.21;13.14453;96183.86;;;;
2019/04/19 11:13:15;;;;;;;4.65;4.25;;;;;;;38.21;13.14453;96183.86;;;;
2019/04/19 11:14:16;;;;;;;4.65;4.25;;;;;;;38.21;13.14453;96183.86;;;;
2019/04/19 11:15:17;;;;;;;4.699999;4.3;;;;;;;38.07;13.62695;96180.69;;;;
2019/04/19 11:16:18;;;;;;;4.699999;4.3;;;;;;;38.07;13.62695;96180.69;;;;
2019/04/19 11:17:19;;;;;;;4.9;4.5;;;;;;;38.05;14.08984;96182.3;;;;
2019/04/19 11:18:20;;;;;;;4.9;4.5;;;;;;;38.05;14.08984;96182.3;;;;
2019/04/19 11:19:21;;;;;;;4.9;4.5;;;;;;;38.05;14.08984;96182.3;;;;
2019/04/19 11:20:22;;;;;;;4.9;4.5;;;;;;;38.05;14.08984;96182.3;;;;
2019/04/19 11:21:23;;;;;;;4.9;4.5;;;;;;;38.05;14.08984;96182.3;;;;
2019/04/19 11:22:24;;;;;;;4.349999;3.95;;;;;;;37.88;13.76074;96180.53;;;;
2019/04/19 11:23:25;;;;;;;4.349999;3.95;;;;;;;37.88;13.76074;96180.53;;;;
2019/04/19 11:24:26;;;;;;;4.349999;3.95;;;;;;;37.88;13.76074;96180.53;;;;
2019/04/19 11:25:28;;;;;;;4.349999;3.95;;;;;;;37.88;13.76074;96180.53;;;;
2019/04/19 11:26:29;;;;;;;4.349999;3.95;;;;;;;37.88;13.76074;96180.53;;;;
2019/04/19 11:27:30;;;;;;;4.199999;3.8;;;;;;;37.61;13.3125;96175.8;;;;
2019/04/19 11:28:31;;;;;;;4.199999;3.8;;;;;;;37.61;13.3125;96175.8;;;;
2019/04/19 11:29:32;;;;;;;4.199999;3.8;;;;;;;37.61;13.3125;96175.8;;;;
2019/04/19 11:30:54;;;;;;;4.699999;3.7;;;;;;;37.71;13.24609;96178.31;;;;
2019/04/19 11:32:30;;;;;;;4.699999;3.7;;;;;;;37.71;13.24609;96178.31;;;;
2019/04/19 11:33:32;;;;;;;3.9;3.6;;;;;;;37.8;13.02832;96178.05;;;;
2019/04/19 11:34:33;;;;;;;3.9;3.6;;;;;;;37.8;13.02832;96178.05;;;;
2019/04/19 11:35:39;;;;;;;4.05;3.65;;;;;;;37.82;13.0293;96183.89;;;;
2019/04/19 11:36:41;;;;;;;4.05;3.65;;;;;;;37.82;13.0293;96183.89;;;;
2019/04/19 11:37:42;;;;;;;4.05;3.65;;;;;;;37.82;13.0293;96183.89;;;;
2019/04/19 11:38:43;;;;;;;3.9;3.6;;;;;;;37.81;13.0293;96171.59;;;;
2019/04/19 11:39:44;;;;;;;3.9;3.6;;;;;;;37.81;13.0293;96171.59;;;;
2019/04/19 11:40:45;;;;;;;3.8;3.5;;;;;;;37.81;12.86719;96177.64;;;;
2019/04/19 11:41:46;;;;;;;3.8;3.5;;;;;;;37.81;12.86719;96177.64;;;;
2019/04/19 11:42:47;;;;;;;3.8;3.5;;;;;;;37.81;12.86719;96177.64;;;;
2019/04/19 11:43:48;;;;;;;3.8;3.5;;;;;;;37.81;12.86719;96177.64;;;;
2019/04/19 11:44:49;;;;;;;3.8;3.5;;;;;;;37.81;12.86719;96177.64;;;;
2019/04/19 11:45:51;;;;;;;3.8;3.5;;;;;;;37.81;12.86719;96177.64;;;;
2019/04/19 11:46:52;;;;;;;4.65;3.55;;;;;;;37.46;13.33203;96180.89;;;;
2019/04/19 11:47:53;;;;;;;4.65;3.55;;;;;;;37.46;13.33203;96180.89;;;;
2019/04/19 11:48:54;;;;;;;4.199999;3.400001;;;;;;;37.25;13.30176;96173.6;;;;
2019/04/19 11:49:55;;;;;;;4.199999;3.400001;;;;;;;37.25;13.30176;96173.6;;;;
2019/04/19 11:50:56;;;;;;;4.199999;3.400001;;;;;;;37.25;13.30176;96173.6;;;;
2019/04/19 11:51:57;;;;;;;3.8;3.400001;;;;;;;37.08;13.13574;96182.64;;;;
2019/04/19 11:53:32;;;;;;;3.8;3.400001;;;;;;;37.08;13.13574;96182.64;;;;